sensor_id;sensor_type;location;lat;lon;timestamp;P1;durP1;ratioP1;P2;durP2;ratioP2
7985;SDS011;4038;42.612;23.066;2023-06-01T00:01:02;22.67;;;20.98;;
7985;SDS011;4038;42.612;23.066;2023-06-01T00:03:29;19.63;;;18.23;;
7985;SDS011;4038;42.612;23.066;2023-06-01T00:05:55;20.02;;;18.63;;
7985;SDS011;4038;42.612;23.066;2023-06-01T00:08:21;20.50;;;18.92;;
7985;SDS011;4038;42.612;23.066;2023-06-01T00:10:48;18.65;;;17.35;;
7985;SDS011;4038;42.612;23.066;2023-06-01T00:13:13;19.27;;;18.08;;
7985;SDS011;4038;42.612;23.066;2023-06-01T00:15:38;19.88;;;18.50;;
7985;SDS011;4038;42.612;23.066;2023-06-01T00:18:04;18.52;;;17.33;;
7985;SDS011;4038;42.612;23.066;2023-06-01T00:20:30;19.15;;;17.83;;
7985;SDS011;4038;42.612;23.066;2023-06-01T00:22:57;21.13;;;19.45;;
7985;SDS011;4038;42.612;23.066;2023-06-01T00:25:24;20.50;;;18.98;;
7985;SDS011;4038;42.612;23.066;2023-06-01T00:27:49;18.83;;;17.52;;
7985;SDS011;4038;42.612;23.066;2023-06-01T00:30:14;19.65;;;18.23;;
7985;SDS011;4038;42.612;23.066;2023-06-01T00:32:40;19.60;;;17.95;;
7985;SDS011;4038;42.612;23.066;2023-06-01T00:35:05;19.27;;;18.05;;
7985;SDS011;4038;42.612;23.066;2023-06-01T00:37:31;20.00;;;18.48;;
7985;SDS011;4038;42.612;23.066;2023-06-01T00:39:56;20.80;;;19.27;;
7985;SDS011;4038;42.612;23.066;2023-06-01T00:42:21;20.73;;;19.23;;
7985;SDS011;4038;42.612;23.066;2023-06-01T00:44:46;19.35;;;17.95;;
7985;SDS011;4038;42.612;23.066;2023-06-01T00:47:12;19.55;;;18.05;;
7985;SDS011;4038;42.612;23.066;2023-06-01T00:49:37;19.80;;;18.25;;
7985;SDS011;4038;42.612;23.066;2023-06-01T00:52:02;19.48;;;18.08;;
7985;SDS011;4038;42.612;23.066;2023-06-01T00:54:28;21.45;;;20.02;;
7985;SDS011;4038;42.612;23.066;2023-06-01T00:56:53;19.23;;;17.77;;
7985;SDS011;4038;42.612;23.066;2023-06-01T00:59:18;19.05;;;17.65;;
7985;SDS011;4038;42.612;23.066;2023-06-01T01:01:44;19.13;;;17.63;;
7985;SDS011;4038;42.612;23.066;2023-06-01T01:04:09;18.75;;;17.15;;
7985;SDS011;4038;42.612;23.066;2023-06-01T01:11:39;19.63;;;18.33;;
7985;SDS011;4038;42.612;23.066;2023-06-01T01:14:20;19.95;;;18.60;;
7985;SDS011;4038;42.612;23.066;2023-06-01T01:16:56;19.52;;;17.85;;
7985;SDS011;4038;42.612;23.066;2023-06-01T01:29:49;22.20;;;20.02;;
7985;SDS011;4038;42.612;23.066;2023-06-01T01:32:16;19.58;;;18.35;;
7985;SDS011;4038;42.612;23.066;2023-06-01T01:34:42;19.33;;;17.92;;
7985;SDS011;4038;42.612;23.066;2023-06-01T01:37:08;20.00;;;18.55;;
7985;SDS011;4038;42.612;23.066;2023-06-01T01:39:33;19.95;;;18.55;;
7985;SDS011;4038;42.612;23.066;2023-06-01T01:41:59;19.48;;;17.95;;
7985;SDS011;4038;42.612;23.066;2023-06-01T01:44:24;19.50;;;18.02;;
7985;SDS011;4038;42.612;23.066;2023-06-01T01:54:24;19.80;;;18.33;;
7985;SDS011;4038;42.612;23.066;2023-06-01T01:56:49;18.98;;;17.45;;
7985;SDS011;4038;42.612;23.066;2023-06-01T01:59:15;18.27;;;17.13;;
7985;SDS011;4038;42.612;23.066;2023-06-01T02:01:41;19.10;;;17.55;;
7985;SDS011;4038;42.612;23.066;2023-06-01T02:04:09;19.15;;;17.70;;
7985;SDS011;4038;42.612;23.066;2023-06-01T02:06:35;20.02;;;18.33;;
7985;SDS011;4038;42.612;23.066;2023-06-01T02:09:01;40.92;;;24.15;;
7985;SDS011;4038;42.612;23.066;2023-06-01T02:11:26;55.58;;;25.30;;
7985;SDS011;4038;42.612;23.066;2023-06-01T02:13:52;42.50;;;24.83;;
7985;SDS011;4038;42.612;23.066;2023-06-01T02:16:17;23.77;;;21.38;;
7985;SDS011;4038;42.612;23.066;2023-06-01T02:18:45;22.38;;;20.55;;
7985;SDS011;4038;42.612;23.066;2023-06-01T02:21:14;27.13;;;21.80;;
7985;SDS011;4038;42.612;23.066;2023-06-01T02:23:39;30.75;;;21.33;;
7985;SDS011;4038;42.612;23.066;2023-06-01T02:26:05;22.27;;;20.10;;
7985;SDS011;4038;42.612;23.066;2023-06-01T02:28:30;21.02;;;19.25;;
7985;SDS011;4038;42.612;23.066;2023-06-01T02:30:55;20.40;;;18.77;;
7985;SDS011;4038;42.612;23.066;2023-06-01T02:33:21;21.02;;;18.85;;
7985;SDS011;4038;42.612;23.066;2023-06-01T02:35:46;20.27;;;18.75;;
7985;SDS011;4038;42.612;23.066;2023-06-01T02:38:11;20.65;;;19.25;;
7985;SDS011;4038;42.612;23.066;2023-06-01T02:40:36;19.73;;;18.10;;
7985;SDS011;4038;42.612;23.066;2023-06-01T02:43:02;20.63;;;19.10;;
7985;SDS011;4038;42.612;23.066;2023-06-01T02:45:27;19.38;;;17.92;;
7985;SDS011;4038;42.612;23.066;2023-06-01T02:47:52;18.42;;;17.13;;
7985;SDS011;4038;42.612;23.066;2023-06-01T02:50:17;18.92;;;17.63;;
7985;SDS011;4038;42.612;23.066;2023-06-01T02:52:43;19.88;;;18.33;;
7985;SDS011;4038;42.612;23.066;2023-06-01T02:55:09;19.17;;;17.60;;
7985;SDS011;4038;42.612;23.066;2023-06-01T02:57:34;18.92;;;17.50;;
7985;SDS011;4038;42.612;23.066;2023-06-01T03:00:00;18.92;;;17.40;;
7985;SDS011;4038;42.612;23.066;2023-06-01T03:02:25;18.42;;;16.88;;
7985;SDS011;4038;42.612;23.066;2023-06-01T03:04:51;19.63;;;17.95;;
7985;SDS011;4038;42.612;23.066;2023-06-01T03:07:17;18.90;;;17.60;;
7985;SDS011;4038;42.612;23.066;2023-06-01T03:09:42;17.98;;;16.77;;
7985;SDS011;4038;42.612;23.066;2023-06-01T03:12:07;18.08;;;16.80;;
7985;SDS011;4038;42.612;23.066;2023-06-01T03:14:33;18.63;;;17.00;;
7985;SDS011;4038;42.612;23.066;2023-06-01T03:16:58;19.15;;;17.55;;
7985;SDS011;4038;42.612;23.066;2023-06-01T03:19:23;18.13;;;16.95;;
7985;SDS011;4038;42.612;23.066;2023-06-01T03:21:49;18.02;;;16.73;;
7985;SDS011;4038;42.612;23.066;2023-06-01T03:24:14;18.48;;;17.17;;
7985;SDS011;4038;42.612;23.066;2023-06-01T03:26:39;17.98;;;16.67;;
7985;SDS011;4038;42.612;23.066;2023-06-01T03:29:04;17.77;;;16.48;;
7985;SDS011;4038;42.612;23.066;2023-06-01T03:31:30;18.02;;;16.88;;
7985;SDS011;4038;42.612;23.066;2023-06-01T03:33:55;18.80;;;17.40;;
7985;SDS011;4038;42.612;23.066;2023-06-01T03:36:20;18.85;;;17.52;;
7985;SDS011;4038;42.612;23.066;2023-06-01T03:38:46;19.15;;;17.60;;
7985;SDS011;4038;42.612;23.066;2023-06-01T03:41:11;20.05;;;18.55;;
7985;SDS011;4038;42.612;23.066;2023-06-01T03:43:36;20.02;;;18.52;;
7985;SDS011;4038;42.612;23.066;2023-06-01T03:46:02;19.98;;;18.58;;
7985;SDS011;4038;42.612;23.066;2023-06-01T03:48:27;19.85;;;18.45;;
7985;SDS011;4038;42.612;23.066;2023-06-01T03:50:53;20.60;;;19.10;;
7985;SDS011;4038;42.612;23.066;2023-06-01T03:53:18;20.27;;;18.85;;
7985;SDS011;4038;42.612;23.066;2023-06-01T03:55:43;20.02;;;18.40;;
7985;SDS011;4038;42.612;23.066;2023-06-01T03:58:09;20.40;;;19.08;;
7985;SDS011;4038;42.612;23.066;2023-06-01T04:00:34;19.73;;;18.13;;
7985;SDS011;4038;42.612;23.066;2023-06-01T04:03:01;20.33;;;18.15;;
7985;SDS011;4038;42.612;23.066;2023-06-01T04:05:29;26.08;;;19.92;;
7985;SDS011;4038;42.612;23.066;2023-06-01T04:07:54;63.13;;;26.17;;
7985;SDS011;4038;42.612;23.066;2023-06-01T04:10:20;33.17;;;21.80;;
7985;SDS011;4038;42.612;23.066;2023-06-01T04:12:46;25.63;;;21.17;;
7985;SDS011;4038;42.612;23.066;2023-06-01T04:15:12;25.65;;;20.90;;
7985;SDS011;4038;42.612;23.066;2023-06-01T04:17:38;22.50;;;20.20;;
7985;SDS011;4038;42.612;23.066;2023-06-01T04:20:04;22.00;;;19.83;;
7985;SDS011;4038;42.612;23.066;2023-06-01T04:22:34;22.40;;;20.02;;
7985;SDS011;4038;42.612;23.066;2023-06-01T04:24:59;21.80;;;19.80;;
7985;SDS011;4038;42.612;23.066;2023-06-01T04:27:25;22.45;;;19.98;;
7985;SDS011;4038;42.612;23.066;2023-06-01T04:29:51;22.60;;;20.75;;
7985;SDS011;4038;42.612;23.066;2023-06-01T04:32:18;22.27;;;20.30;;
7985;SDS011;4038;42.612;23.066;2023-06-01T04:34:46;23.52;;;21.35;;
7985;SDS011;4038;42.612;23.066;2023-06-01T04:37:13;22.88;;;20.80;;
7985;SDS011;4038;42.612;23.066;2023-06-01T04:39:40;22.60;;;20.70;;
7985;SDS011;4038;42.612;23.066;2023-06-01T04:42:07;22.58;;;20.67;;
7985;SDS011;4038;42.612;23.066;2023-06-01T04:44:33;26.00;;;21.65;;
7985;SDS011;4038;42.612;23.066;2023-06-01T04:46:59;25.88;;;22.27;;
7985;SDS011;4038;42.612;23.066;2023-06-01T04:49:28;46.33;;;24.92;;
7985;SDS011;4038;42.612;23.066;2023-06-01T04:51:53;57.70;;;29.45;;
7985;SDS011;4038;42.612;23.066;2023-06-01T04:54:19;59.58;;;26.08;;
7985;SDS011;4038;42.612;23.066;2023-06-01T04:56:44;39.65;;;24.45;;
7985;SDS011;4038;42.612;23.066;2023-06-01T04:59:09;31.38;;;23.00;;
7985;SDS011;4038;42.612;23.066;2023-06-01T05:01:35;51.38;;;26.52;;
7985;SDS011;4038;42.612;23.066;2023-06-01T05:04:03;26.83;;;23.92;;
7985;SDS011;4038;42.612;23.066;2023-06-01T05:06:29;31.30;;;24.20;;
7985;SDS011;4038;42.612;23.066;2023-06-01T05:08:54;44.47;;;26.20;;
7985;SDS011;4038;42.612;23.066;2023-06-01T05:11:19;45.25;;;24.63;;
7985;SDS011;4038;42.612;23.066;2023-06-01T05:13:46;40.65;;;25.88;;
7985;SDS011;4038;42.612;23.066;2023-06-01T05:16:11;32.97;;;26.40;;
7985;SDS011;4038;42.612;23.066;2023-06-01T05:18:37;47.03;;;27.25;;
7985;SDS011;4038;42.612;23.066;2023-06-01T05:21:03;42.80;;;26.88;;
7985;SDS011;4038;42.612;23.066;2023-06-01T05:23:28;49.55;;;28.10;;
7985;SDS011;4038;42.612;23.066;2023-06-01T05:25:53;55.70;;;28.33;;
7985;SDS011;4038;42.612;23.066;2023-06-01T05:28:24;42.92;;;27.67;;
7985;SDS011;4038;42.612;23.066;2023-06-01T05:30:50;47.28;;;26.45;;
7985;SDS011;4038;42.612;23.066;2023-06-01T05:33:15;38.75;;;26.52;;
7985;SDS011;4038;42.612;23.066;2023-06-01T05:35:40;40.13;;;26.02;;
7985;SDS011;4038;42.612;23.066;2023-06-01T05:38:06;29.48;;;24.67;;
7985;SDS011;4038;42.612;23.066;2023-06-01T05:40:31;33.35;;;25.80;;
7985;SDS011;4038;42.612;23.066;2023-06-01T05:42:56;33.95;;;26.52;;
7985;SDS011;4038;42.612;23.066;2023-06-01T05:45:22;39.63;;;27.27;;
7985;SDS011;4038;42.612;23.066;2023-06-01T05:47:47;40.80;;;27.42;;
7985;SDS011;4038;42.612;23.066;2023-06-01T05:50:12;44.97;;;27.75;;
7985;SDS011;4038;42.612;23.066;2023-06-01T05:52:37;43.53;;;27.83;;
7985;SDS011;4038;42.612;23.066;2023-06-01T05:55:04;39.22;;;27.05;;
7985;SDS011;4038;42.612;23.066;2023-06-01T05:57:29;40.55;;;26.40;;
7985;SDS011;4038;42.612;23.066;2023-06-01T05:59:55;46.05;;;29.08;;
7985;SDS011;4038;42.612;23.066;2023-06-01T06:02:20;41.55;;;29.20;;
7985;SDS011;4038;42.612;23.066;2023-06-01T06:04:45;51.40;;;30.30;;
7985;SDS011;4038;42.612;23.066;2023-06-01T06:07:10;43.05;;;29.75;;
7985;SDS011;4038;42.612;23.066;2023-06-01T06:09:36;49.15;;;30.08;;
7985;SDS011;4038;42.612;23.066;2023-06-01T06:12:01;35.42;;;29.45;;
7985;SDS011;4038;42.612;23.066;2023-06-01T06:14:27;39.25;;;28.35;;
7985;SDS011;4038;42.612;23.066;2023-06-01T06:16:52;39.35;;;29.10;;
7985;SDS011;4038;42.612;23.066;2023-06-01T06:19:18;37.22;;;30.60;;
7985;SDS011;4038;42.612;23.066;2023-06-01T06:21:43;35.22;;;31.48;;
7985;SDS011;4038;42.612;23.066;2023-06-01T06:24:08;34.95;;;29.80;;
7985;SDS011;4038;42.612;23.066;2023-06-01T06:26:34;34.53;;;29.08;;
7985;SDS011;4038;42.612;23.066;2023-06-01T06:28:59;35.83;;;31.08;;
7985;SDS011;4038;42.612;23.066;2023-06-01T06:31:24;36.03;;;32.35;;
7985;SDS011;4038;42.612;23.066;2023-06-01T06:33:50;37.10;;;33.83;;
7985;SDS011;4038;42.612;23.066;2023-06-01T06:36:16;34.42;;;31.38;;
7985;SDS011;4038;42.612;23.066;2023-06-01T06:38:42;37.65;;;33.83;;
7985;SDS011;4038;42.612;23.066;2023-06-01T06:41:07;37.33;;;33.92;;
7985;SDS011;4038;42.612;23.066;2023-06-01T06:43:32;35.50;;;32.55;;
7985;SDS011;4038;42.612;23.066;2023-06-01T06:45:57;35.40;;;32.45;;
7985;SDS011;4038;42.612;23.066;2023-06-01T06:48:22;34.60;;;31.73;;
7985;SDS011;4038;42.612;23.066;2023-06-01T06:50:48;34.33;;;31.35;;
7985;SDS011;4038;42.612;23.066;2023-06-01T06:53:13;34.08;;;31.48;;
7985;SDS011;4038;42.612;23.066;2023-06-01T06:55:38;32.15;;;29.55;;
7985;SDS011;4038;42.612;23.066;2023-06-01T06:58:04;32.30;;;29.38;;
7985;SDS011;4038;42.612;23.066;2023-06-01T07:00:29;30.15;;;27.70;;
7985;SDS011;4038;42.612;23.066;2023-06-01T07:02:55;30.27;;;27.80;;
7985;SDS011;4038;42.612;23.066;2023-06-01T07:05:20;31.00;;;28.48;;
7985;SDS011;4038;42.612;23.066;2023-06-01T07:07:45;33.15;;;30.05;;
7985;SDS011;4038;42.612;23.066;2023-06-01T07:10:11;32.10;;;29.48;;
7985;SDS011;4038;42.612;23.066;2023-06-01T07:12:37;29.60;;;27.27;;
7985;SDS011;4038;42.612;23.066;2023-06-01T07:15:02;28.52;;;26.20;;
7985;SDS011;4038;42.612;23.066;2023-06-01T07:17:27;28.42;;;26.02;;
7985;SDS011;4038;42.612;23.066;2023-06-01T07:19:53;28.23;;;25.75;;
7985;SDS011;4038;42.612;23.066;2023-06-01T07:22:18;28.10;;;25.85;;
7985;SDS011;4038;42.612;23.066;2023-06-01T07:24:45;27.67;;;25.40;;
7985;SDS011;4038;42.612;23.066;2023-06-01T07:27:11;26.90;;;24.73;;
7985;SDS011;4038;42.612;23.066;2023-06-01T07:29:36;27.52;;;25.10;;
7985;SDS011;4038;42.612;23.066;2023-06-01T07:32:01;28.27;;;26.27;;
7985;SDS011;4038;42.612;23.066;2023-06-01T07:34:27;27.60;;;25.48;;
7985;SDS011;4038;42.612;23.066;2023-06-01T07:36:52;27.50;;;25.30;;
7985;SDS011;4038;42.612;23.066;2023-06-01T07:39:18;28.08;;;25.80;;
7985;SDS011;4038;42.612;23.066;2023-06-01T07:41:44;28.35;;;26.35;;
7985;SDS011;4038;42.612;23.066;2023-06-01T07:44:10;28.67;;;26.55;;
7985;SDS011;4038;42.612;23.066;2023-06-01T07:46:35;29.02;;;26.92;;
7985;SDS011;4038;42.612;23.066;2023-06-01T07:49:01;28.58;;;26.38;;
7985;SDS011;4038;42.612;23.066;2023-06-01T07:51:26;29.55;;;27.25;;
7985;SDS011;4038;42.612;23.066;2023-06-01T07:53:51;28.98;;;27.02;;
7985;SDS011;4038;42.612;23.066;2023-06-01T07:56:20;28.77;;;26.60;;
7985;SDS011;4038;42.612;23.066;2023-06-01T07:58:45;29.27;;;26.75;;
7985;SDS011;4038;42.612;23.066;2023-06-01T08:01:10;27.40;;;25.42;;
7985;SDS011;4038;42.612;23.066;2023-06-01T08:03:36;28.33;;;26.33;;
7985;SDS011;4038;42.612;23.066;2023-06-01T08:06:01;28.45;;;26.42;;
7985;SDS011;4038;42.612;23.066;2023-06-01T08:08:30;27.90;;;25.95;;
7985;SDS011;4038;42.612;23.066;2023-06-01T08:10:55;27.40;;;25.40;;
7985;SDS011;4038;42.612;23.066;2023-06-01T08:13:20;29.42;;;27.13;;
7985;SDS011;4038;42.612;23.066;2023-06-01T08:15:46;28.00;;;25.98;;
7985;SDS011;4038;42.612;23.066;2023-06-01T08:18:14;29.40;;;27.08;;
7985;SDS011;4038;42.612;23.066;2023-06-01T08:20:40;28.48;;;26.20;;
7985;SDS011;4038;42.612;23.066;2023-06-01T08:23:07;28.40;;;26.35;;
7985;SDS011;4038;42.612;23.066;2023-06-01T08:25:32;28.90;;;26.75;;
7985;SDS011;4038;42.612;23.066;2023-06-01T08:27:58;31.02;;;28.33;;
7985;SDS011;4038;42.612;23.066;2023-06-01T08:30:24;29.05;;;26.65;;
7985;SDS011;4038;42.612;23.066;2023-06-01T08:32:50;27.83;;;25.85;;
7985;SDS011;4038;42.612;23.066;2023-06-01T08:35:15;27.45;;;25.55;;
7985;SDS011;4038;42.612;23.066;2023-06-01T08:37:40;28.48;;;26.35;;
7985;SDS011;4038;42.612;23.066;2023-06-01T08:40:06;28.90;;;26.75;;
7985;SDS011;4038;42.612;23.066;2023-06-01T08:45:03;28.42;;;26.33;;
7985;SDS011;4038;42.612;23.066;2023-06-01T08:47:29;28.67;;;26.60;;
7985;SDS011;4038;42.612;23.066;2023-06-01T08:49:56;28.75;;;26.55;;
7985;SDS011;4038;42.612;23.066;2023-06-01T08:52:24;28.13;;;26.17;;
7985;SDS011;4038;42.612;23.066;2023-06-01T08:54:52;28.40;;;26.50;;
7985;SDS011;4038;42.612;23.066;2023-06-01T08:57:18;27.63;;;25.30;;
7985;SDS011;4038;42.612;23.066;2023-06-01T08:59:45;26.95;;;25.05;;
7985;SDS011;4038;42.612;23.066;2023-06-01T09:02:10;27.67;;;25.85;;
7985;SDS011;4038;42.612;23.066;2023-06-01T09:04:35;27.48;;;25.38;;
7985;SDS011;4038;42.612;23.066;2023-06-01T09:07:03;28.65;;;26.58;;
7985;SDS011;4038;42.612;23.066;2023-06-01T09:09:28;27.67;;;25.77;;
7985;SDS011;4038;42.612;23.066;2023-06-01T09:14:37;28.02;;;26.17;;
7985;SDS011;4038;42.612;23.066;2023-06-01T09:17:03;28.45;;;26.30;;
7985;SDS011;4038;42.612;23.066;2023-06-01T09:19:40;28.10;;;26.15;;
7985;SDS011;4038;42.612;23.066;2023-06-01T09:22:05;27.17;;;25.38;;
7985;SDS011;4038;42.612;23.066;2023-06-01T09:24:31;27.25;;;25.40;;
7985;SDS011;4038;42.612;23.066;2023-06-01T09:27:00;29.25;;;26.88;;
7985;SDS011;4038;42.612;23.066;2023-06-01T09:29:25;28.15;;;26.25;;
7985;SDS011;4038;42.612;23.066;2023-06-01T09:31:51;28.80;;;26.73;;
7985;SDS011;4038;42.612;23.066;2023-06-01T09:34:17;28.17;;;26.27;;
7985;SDS011;4038;42.612;23.066;2023-06-01T09:36:49;27.10;;;25.00;;
7985;SDS011;4038;42.612;23.066;2023-06-01T09:39:15;28.23;;;26.02;;
7985;SDS011;4038;42.612;23.066;2023-06-01T09:41:44;28.70;;;26.60;;
7985;SDS011;4038;42.612;23.066;2023-06-01T09:44:10;29.20;;;27.15;;
7985;SDS011;4038;42.612;23.066;2023-06-01T09:46:45;27.98;;;25.90;;
7985;SDS011;4038;42.612;23.066;2023-06-01T09:49:11;27.58;;;25.67;;
7985;SDS011;4038;42.612;23.066;2023-06-01T09:51:42;27.05;;;25.08;;
7985;SDS011;4038;42.612;23.066;2023-06-01T09:54:07;26.88;;;24.77;;
7985;SDS011;4038;42.612;23.066;2023-06-01T09:56:42;26.80;;;24.90;;
7985;SDS011;4038;42.612;23.066;2023-06-01T09:59:07;26.73;;;24.73;;
7985;SDS011;4038;42.612;23.066;2023-06-01T10:01:33;26.05;;;24.25;;
7985;SDS011;4038;42.612;23.066;2023-06-01T10:03:58;26.75;;;24.75;;
7985;SDS011;4038;42.612;23.066;2023-06-01T10:06:25;26.30;;;24.33;;
7985;SDS011;4038;42.612;23.066;2023-06-01T10:08:50;26.02;;;24.02;;
7985;SDS011;4038;42.612;23.066;2023-06-01T10:11:17;27.50;;;25.50;;
7985;SDS011;4038;42.612;23.066;2023-06-01T10:13:43;27.17;;;25.27;;
7985;SDS011;4038;42.612;23.066;2023-06-01T10:16:09;26.42;;;24.48;;
7985;SDS011;4038;42.612;23.066;2023-06-01T10:18:37;28.05;;;26.15;;
7985;SDS011;4038;42.612;23.066;2023-06-01T10:21:02;27.27;;;25.48;;
7985;SDS011;4038;42.612;23.066;2023-06-01T10:23:31;26.60;;;24.80;;
7985;SDS011;4038;42.612;23.066;2023-06-01T10:25:56;28.15;;;26.05;;
7985;SDS011;4038;42.612;23.066;2023-06-01T10:28:22;28.17;;;26.15;;
7985;SDS011;4038;42.612;23.066;2023-06-01T10:31:31;27.92;;;25.73;;
7985;SDS011;4038;42.612;23.066;2023-06-01T10:33:52;27.60;;;25.50;;
7985;SDS011;4038;42.612;23.066;2023-06-01T10:36:18;28.15;;;25.90;;
7985;SDS011;4038;42.612;23.066;2023-06-01T10:38:43;27.38;;;25.48;;
7985;SDS011;4038;42.612;23.066;2023-06-01T10:41:24;28.30;;;26.30;;
7985;SDS011;4038;42.612;23.066;2023-06-01T10:43:50;28.92;;;26.65;;
7985;SDS011;4038;42.612;23.066;2023-06-01T10:46:37;28.70;;;26.58;;
7985;SDS011;4038;42.612;23.066;2023-06-01T10:49:02;28.05;;;25.85;;
7985;SDS011;4038;42.612;23.066;2023-06-01T10:51:27;26.80;;;24.80;;
7985;SDS011;4038;42.612;23.066;2023-06-01T10:54:05;28.15;;;25.63;;
7985;SDS011;4038;42.612;23.066;2023-06-01T10:56:40;26.73;;;24.83;;
7985;SDS011;4038;42.612;23.066;2023-06-01T11:01:31;27.15;;;25.25;;
7985;SDS011;4038;42.612;23.066;2023-06-01T11:03:57;27.20;;;25.20;;
7985;SDS011;4038;42.612;23.066;2023-06-01T11:06:23;26.88;;;25.02;;
7985;SDS011;4038;42.612;23.066;2023-06-01T11:08:51;27.48;;;25.27;;
7985;SDS011;4038;42.612;23.066;2023-06-01T11:11:17;26.75;;;24.95;;
7985;SDS011;4038;42.612;23.066;2023-06-01T11:13:43;27.33;;;25.17;;
7985;SDS011;4038;42.612;23.066;2023-06-01T11:21:15;26.65;;;24.77;;
7985;SDS011;4038;42.612;23.066;2023-06-01T11:23:41;29.20;;;27.05;;
7985;SDS011;4038;42.612;23.066;2023-06-01T11:26:07;27.65;;;25.65;;
7985;SDS011;4038;42.612;23.066;2023-06-01T11:28:32;26.50;;;24.58;;
7985;SDS011;4038;42.612;23.066;2023-06-01T11:30:59;28.65;;;26.42;;
7985;SDS011;4038;42.612;23.066;2023-06-01T11:33:25;27.77;;;25.77;;
7985;SDS011;4038;42.612;23.066;2023-06-01T11:35:59;27.48;;;25.38;;
7985;SDS011;4038;42.612;23.066;2023-06-01T11:38:34;30.00;;;26.95;;
7985;SDS011;4038;42.612;23.066;2023-06-01T11:41:01;27.83;;;25.58;;
7985;SDS011;4038;42.612;23.066;2023-06-01T11:43:27;26.77;;;24.75;;
7985;SDS011;4038;42.612;23.066;2023-06-01T11:46:02;27.45;;;25.42;;
7985;SDS011;4038;42.612;23.066;2023-06-01T11:48:27;32.97;;;27.13;;
7985;SDS011;4038;42.612;23.066;2023-06-01T11:50:53;26.52;;;24.42;;
7985;SDS011;4038;42.612;23.066;2023-06-01T11:53:19;27.05;;;25.23;;
7985;SDS011;4038;42.612;23.066;2023-06-01T11:55:52;26.35;;;24.55;;
7985;SDS011;4038;42.612;23.066;2023-06-01T11:58:28;25.85;;;23.85;;
7985;SDS011;4038;42.612;23.066;2023-06-01T12:00:54;28.13;;;25.75;;
7985;SDS011;4038;42.612;23.066;2023-06-01T12:03:20;28.42;;;26.23;;
7985;SDS011;4038;42.612;23.066;2023-06-01T12:05:45;27.02;;;25.00;;
7985;SDS011;4038;42.612;23.066;2023-06-01T12:08:24;27.15;;;25.20;;
7985;SDS011;4038;42.612;23.066;2023-06-01T12:10:50;27.73;;;25.38;;
7985;SDS011;4038;42.612;23.066;2023-06-01T12:13:16;28.00;;;25.92;;
7985;SDS011;4038;42.612;23.066;2023-06-01T12:15:41;28.67;;;26.58;;
7985;SDS011;4038;42.612;23.066;2023-06-01T12:18:07;29.10;;;26.38;;
7985;SDS011;4038;42.612;23.066;2023-06-01T12:20:40;28.20;;;26.10;;
7985;SDS011;4038;42.612;23.066;2023-06-01T12:23:12;28.60;;;26.48;;
7985;SDS011;4038;42.612;23.066;2023-06-01T12:25:57;28.65;;;26.52;;
7985;SDS011;4038;42.612;23.066;2023-06-01T12:28:23;29.10;;;27.10;;
7985;SDS011;4038;42.612;23.066;2023-06-01T12:31:07;28.80;;;26.45;;
7985;SDS011;4038;42.612;23.066;2023-06-01T12:33:33;27.58;;;25.48;;
7985;SDS011;4038;42.612;23.066;2023-06-01T12:35:59;27.45;;;25.20;;
7985;SDS011;4038;42.612;23.066;2023-06-01T12:38:24;25.60;;;23.77;;
7985;SDS011;4038;42.612;23.066;2023-06-01T12:41:12;24.27;;;22.55;;
7985;SDS011;4038;42.612;23.066;2023-06-01T12:43:36;24.45;;;22.63;;
7985;SDS011;4038;42.612;23.066;2023-06-01T12:46:02;25.48;;;22.83;;
7985;SDS011;4038;42.612;23.066;2023-06-01T12:48:34;25.10;;;23.08;;
7985;SDS011;4038;42.612;23.066;2023-06-01T12:50:59;24.92;;;23.33;;
7985;SDS011;4038;42.612;23.066;2023-06-01T12:53:25;25.30;;;23.58;;
7985;SDS011;4038;42.612;23.066;2023-06-01T12:55:51;24.48;;;22.65;;
7985;SDS011;4038;42.612;23.066;2023-06-01T12:58:16;24.98;;;23.05;;
7985;SDS011;4038;42.612;23.066;2023-06-01T13:00:41;27.02;;;24.15;;
7985;SDS011;4038;42.612;23.066;2023-06-01T13:03:07;26.17;;;23.77;;
7985;SDS011;4038;42.612;23.066;2023-06-01T13:05:32;24.05;;;22.35;;
7985;SDS011;4038;42.612;23.066;2023-06-01T13:07:58;63.97;;;32.03;;
7985;SDS011;4038;42.612;23.066;2023-06-01T13:10:24;30.55;;;24.92;;
7985;SDS011;4038;42.612;23.066;2023-06-01T13:12:50;70.45;;;32.72;;
7985;SDS011;4038;42.612;23.066;2023-06-01T13:15:15;28.10;;;24.70;;
7985;SDS011;4038;42.612;23.066;2023-06-01T13:17:40;61.17;;;29.55;;
7985;SDS011;4038;42.612;23.066;2023-06-01T13:20:06;45.92;;;28.48;;
7985;SDS011;4038;42.612;23.066;2023-06-01T13:22:32;25.88;;;23.25;;
7985;SDS011;4038;42.612;23.066;2023-06-01T13:24:57;24.55;;;22.45;;
7985;SDS011;4038;42.612;23.066;2023-06-01T13:27:23;56.28;;;28.92;;
7985;SDS011;4038;42.612;23.066;2023-06-01T13:29:48;26.25;;;22.70;;
7985;SDS011;4038;42.612;23.066;2023-06-01T13:32:13;43.10;;;25.35;;
7985;SDS011;4038;42.612;23.066;2023-06-01T13:34:39;25.98;;;23.42;;
7985;SDS011;4038;42.612;23.066;2023-06-01T13:37:04;24.42;;;22.73;;
7985;SDS011;4038;42.612;23.066;2023-06-01T13:39:29;23.88;;;22.27;;
7985;SDS011;4038;42.612;23.066;2023-06-01T13:41:55;23.73;;;21.92;;
7985;SDS011;4038;42.612;23.066;2023-06-01T13:44:20;23.42;;;21.73;;
7985;SDS011;4038;42.612;23.066;2023-06-01T13:46:46;52.95;;;29.00;;
7985;SDS011;4038;42.612;23.066;2023-06-01T13:49:11;31.75;;;25.13;;
7985;SDS011;4038;42.612;23.066;2023-06-01T13:51:36;25.00;;;22.88;;
7985;SDS011;4038;42.612;23.066;2023-06-01T13:54:05;24.77;;;23.15;;
7985;SDS011;4038;42.612;23.066;2023-06-01T13:56:30;24.52;;;22.80;;
7985;SDS011;4038;42.612;23.066;2023-06-01T13:58:56;25.02;;;23.30;;
7985;SDS011;4038;42.612;23.066;2023-06-01T14:01:21;24.88;;;23.17;;
7985;SDS011;4038;42.612;23.066;2023-06-01T14:03:46;25.20;;;23.40;;
7985;SDS011;4038;42.612;23.066;2023-06-01T14:06:11;25.35;;;23.58;;
7985;SDS011;4038;42.612;23.066;2023-06-01T14:08:37;25.67;;;23.58;;
7985;SDS011;4038;42.612;23.066;2023-06-01T14:11:02;24.27;;;22.45;;
7985;SDS011;4038;42.612;23.066;2023-06-01T14:13:27;24.80;;;23.08;;
7985;SDS011;4038;42.612;23.066;2023-06-01T14:15:52;24.73;;;22.75;;
7985;SDS011;4038;42.612;23.066;2023-06-01T14:18:18;24.23;;;22.52;;
7985;SDS011;4038;42.612;23.066;2023-06-01T14:20:43;25.95;;;24.25;;
7985;SDS011;4038;42.612;23.066;2023-06-01T14:23:08;24.73;;;22.92;;
7985;SDS011;4038;42.612;23.066;2023-06-01T14:25:34;24.90;;;23.00;;
7985;SDS011;4038;42.612;23.066;2023-06-01T14:28:00;24.33;;;22.52;;
7985;SDS011;4038;42.612;23.066;2023-06-01T14:30:25;24.00;;;22.30;;
7985;SDS011;4038;42.612;23.066;2023-06-01T14:32:51;24.05;;;22.27;;
7985;SDS011;4038;42.612;23.066;2023-06-01T14:35:17;23.95;;;22.27;;
7985;SDS011;4038;42.612;23.066;2023-06-01T14:37:43;24.90;;;23.20;;
7985;SDS011;4038;42.612;23.066;2023-06-01T14:40:09;26.50;;;24.70;;
7985;SDS011;4038;42.612;23.066;2023-06-01T14:42:35;24.58;;;22.77;;
7985;SDS011;4038;42.612;23.066;2023-06-01T14:45:01;24.55;;;22.45;;
7985;SDS011;4038;42.612;23.066;2023-06-01T14:47:27;24.40;;;22.70;;
7985;SDS011;4038;42.612;23.066;2023-06-01T14:49:52;24.83;;;22.92;;
7985;SDS011;4038;42.612;23.066;2023-06-01T14:52:17;25.45;;;23.35;;
7985;SDS011;4038;42.612;23.066;2023-06-01T14:54:42;25.63;;;23.73;;
7985;SDS011;4038;42.612;23.066;2023-06-01T14:57:08;25.90;;;23.95;;
7985;SDS011;4038;42.612;23.066;2023-06-01T14:59:33;26.15;;;24.17;;
7985;SDS011;4038;42.612;23.066;2023-06-01T15:02:01;27.98;;;26.08;;
7985;SDS011;4038;42.612;23.066;2023-06-01T15:04:26;26.77;;;24.77;;